Time;durP1;ratioP1;P1;durP2;ratioP2;P2;SDS_P1;SDS_P2;PMS_P1;PMS_P2;Temp;Humidity;BMP_temperature;BMP_pressure;BME280_temperature;BME280_humidity;BME280_pressure;Samples;Min_cycle;Max_cycle;Signal;HPM_P1;HPM_P2
2024/03/04 00:00:40;;;;;;;0.75;0.20;;;10.10;96.70;;;;;;4974853;28;20060;-71
2024/03/04 00:03:10;;;;;;;1.88;0.32;;;10.10;96.70;;;;;;4981729;28;20089;-71
2024/03/04 00:05:40;;;;;;;0.55;0.20;;;10.10;96.70;;;;;;4980395;28;20129;-72
2024/03/04 00:08:10;;;;;;;0.30;0.20;;;10.10;96.70;;;;;;4997438;28;20554;-71
2024/03/04 00:10:40;;;;;;;0.60;0.20;;;10.10;96.70;;;;;;4971667;28;20739;-71
2024/03/04 00:13:13;;;;;;;0.65;0.20;;;10.10;96.70;;;;;;4975680;28;20089;-72
2024/03/04 00:15:44;;;;;;;1.70;0.55;;;10.10;96.70;;;;;;4967887;28;20768;-72
2024/03/04 00:18:13;;;;;;;1.15;0.30;;;10.10;96.70;;;;;;4988988;28;20054;-72
2024/03/04 00:20:43;;;;;;;2.38;0.30;;;10.10;96.70;;;;;;4980994;28;20060;-72
2024/03/04 00:23:14;;;;;;;1.58;0.47;;;10.20;96.70;;;;;;4981694;28;20041;-72
2024/03/04 00:25:43;;;;;;;0.63;0.30;;;10.10;96.70;;;;;;4974373;28;20054;-72
2024/03/04 00:28:11;;;;;;;0.98;0.40;;;10.10;96.70;;;;;;4970322;28;20049;-72
2024/03/04 00:30:43;;;;;;;1.10;0.30;;;10.00;96.70;;;;;;4988266;28;20882;-72
2024/03/04 00:33:14;;;;;;;0.57;0.20;;;10.00;96.70;;;;;;4990129;28;20618;-72
2024/03/04 00:35:43;;;;;;;1.13;0.40;;;10.00;96.70;;;;;;4982224;28;20053;-72
2024/03/04 00:38:12;;;;;;;1.27;0.30;;;10.00;96.70;;;;;;4988918;28;20140;-72
2024/03/04 00:40:42;;;;;;;0.75;0.30;;;10.00;96.70;;;;;;4994223;28;20089;-72
2024/03/04 00:43:12;;;;;;;0.95;0.43;;;10.00;96.70;;;;;;4986258;28;20670;-72
2024/03/04 00:45:43;;;;;;;0.57;0.32;;;9.90;96.70;;;;;;4977675;28;20551;-72
2024/03/04 00:48:14;;;;;;;2.28;0.70;;;9.90;96.70;;;;;;4969275;28;20581;-72
2024/03/04 00:50:43;;;;;;;0.88;0.40;;;9.90;96.70;;;;;;4982470;28;20046;-72
2024/03/04 00:53:13;;;;;;;1.05;0.50;;;9.90;96.70;;;;;;4972052;28;20062;-72
2024/03/04 00:55:42;;;;;;;1.15;0.57;;;10.00;96.70;;;;;;4987858;28;20053;-72
2024/03/04 00:58:12;;;;;;;1.38;0.50;;;9.90;96.70;;;;;;4987000;28;20145;-72
2024/03/04 01:00:43;;;;;;;1.27;0.50;;;9.90;96.70;;;;;;4983239;28;20089;-72
2024/03/04 01:03:12;;;;;;;0.98;0.50;;;9.90;96.70;;;;;;4996925;28;20100;-72
2024/03/04 01:05:42;;;;;;;0.82;0.40;;;9.80;96.70;;;;;;4997007;28;20678;-72
2024/03/04 01:08:14;;;;;;;1.45;0.50;;;9.80;96.70;;;;;;4983364;28;20124;-72
2024/03/04 01:10:44;;;;;;;1.30;0.60;;;9.70;96.70;;;;;;4985657;28;20096;-71
2024/03/04 01:13:12;;;;;;;1.27;0.73;;;9.70;96.70;;;;;;4979310;28;20062;-72
2024/03/04 01:15:43;;;;;;;0.63;0.30;;;9.80;96.70;;;;;;4996164;28;20046;-72
2024/03/04 01:18:14;;;;;;;0.90;0.52;;;9.90;96.70;;;;;;4985300;28;20055;-72
2024/03/04 01:20:44;;;;;;;0.60;0.40;;;9.90;96.70;;;;;;4985983;28;20086;-71
2024/03/04 01:23:14;;;;;;;0.30;0.25;;;9.90;96.70;;;;;;5002042;28;20046;-72
2024/03/04 01:25:44;;;;;;;1.13;0.30;;;9.90;96.70;;;;;;4992180;28;20080;-72
2024/03/04 01:28:14;;;;;;;0.40;0.20;;;9.90;96.70;;;;;;4992729;28;20058;-72
2024/03/04 01:30:46;;;;;;;1.02;0.30;;;10.00;96.70;;;;;;4996963;28;20047;-72
2024/03/04 01:33:16;;;;;;;1.35;0.20;;;9.90;96.70;;;;;;4971291;28;20068;-71
2024/03/04 01:35:45;;;;;;;1.20;0.32;;;9.90;96.70;;;;;;4991273;28;20045;-72
2024/03/04 01:38:16;;;;;;;0.95;0.28;;;9.90;96.70;;;;;;4973200;28;20105;-70
2024/03/04 01:40:46;;;;;;;1.65;0.28;;;9.90;96.70;;;;;;4981210;28;20072;-72
2024/03/04 01:43:18;;;;;;;0.85;0.43;;;9.90;96.70;;;;;;4993640;28;20441;-72
2024/03/04 01:45:51;;;;;;;1.35;0.30;;;9.90;96.70;;;;;;4973106;28;20058;-72
2024/03/04 01:48:22;;;;;;;0.75;0.28;;;9.90;96.70;;;;;;4996076;28;20049;-72
2024/03/04 01:50:54;;;;;;;0.43;0.17;;;9.80;96.70;;;;;;4992023;28;20105;-72
2024/03/04 01:53:26;;;;;;;0.80;0.20;;;9.80;96.70;;;;;;4980392;28;20058;-72
2024/03/04 01:55:59;;;;;;;1.27;0.20;;;9.80;96.70;;;;;;4991120;28;20058;-72
2024/03/04 01:58:28;;;;;;;0.28;0.15;;;9.90;96.70;;;;;;4980642;28;20653;-71
2024/03/04 02:01:01;;;;;;;1.35;0.35;;;9.90;96.70;;;;;;4994562;28;20105;-72
2024/03/04 02:03:32;;;;;;;0.80;0.20;;;9.90;96.70;;;;;;4998027;28;20148;-72
2024/03/04 02:06:05;;;;;;;1.17;0.50;;;9.90;96.70;;;;;;4997520;28;20049;-72
2024/03/04 02:08:36;;;;;;;1.00;0.30;;;9.90;96.70;;;;;;4973124;28;20058;-72
2024/03/04 02:11:05;;;;;;;0.63;0.20;;;9.90;96.70;;;;;;4998072;28;20108;-72
2024/03/04 02:13:36;;;;;;;0.32;0.20;;;9.90;96.70;;;;;;4980290;28;20046;-72
2024/03/04 02:16:08;;;;;;;1.10;0.30;;;9.90;96.70;;;;;;4983494;28;20188;-72
2024/03/04 02:18:38;;;;;;;1.33;0.40;;;9.80;96.70;;;;;;4989610;28;20166;-72
2024/03/04 02:21:07;;;;;;;2.35;0.50;;;9.80;96.70;;;;;;4990922;28;20141;-72
2024/03/04 02:23:41;;;;;;;0.20;0.10;;;9.80;96.70;;;;;;4982207;28;20056;-72
2024/03/04 02:26:10;;;;;;;0.60;0.43;;;9.80;96.70;;;;;;4976425;28;20054;-72
2024/03/04 02:28:40;;;;;;;0.35;0.20;;;9.70;96.70;;;;;;4989817;28;20045;-72
2024/03/04 02:31:10;;;;;;;0.93;0.40;;;9.80;96.70;;;;;;4992985;28;20054;-72
2024/03/04 02:33:43;;;;;;;0.40;0.20;;;9.80;96.70;;;;;;4964267;28;20050;-72
2024/03/04 02:36:13;;;;;;;1.58;0.30;;;9.80;96.70;;;;;;4985748;28;20419;-72
2024/03/04 02:38:44;;;;;;;0.82;0.40;;;9.80;96.70;;;;;;4974019;28;20077;-71
2024/03/04 02:41:15;;;;;;;1.23;0.22;;;9.90;96.70;;;;;;4942267;28;20237;-72
2024/03/04 02:43:46;;;;;;;0.65;0.20;;;9.90;96.70;;;;;;4950130;28;20811;-72
2024/03/04 02:46:16;;;;;;;0.63;0.20;;;10.00;96.70;;;;;;4948493;28;20077;-72
2024/03/04 02:48:46;;;;;;;0.90;0.30;;;10.00;96.70;;;;;;4944092;28;20055;-72
2024/03/04 02:51:20;;;;;;;1.55;0.30;;;10.00;96.70;;;;;;4948897;28;20146;-72
2024/03/04 02:53:51;;;;;;;1.13;0.30;;;10.00;96.70;;;;;;4958373;28;20078;-72
2024/03/04 02:56:21;;;;;;;0.65;0.30;;;10.00;96.70;;;;;;4955466;28;20059;-71
2024/03/04 02:58:52;;;;;;;1.92;0.40;;;10.10;96.70;;;;;;4964524;28;20078;-72
2024/03/04 03:01:22;;;;;;;1.35;0.32;;;9.90;96.70;;;;;;4966864;28;20053;-72
2024/03/04 03:03:51;;;;;;;0.90;0.20;;;9.90;96.70;;;;;;4942480;28;20098;-71
2024/03/04 03:06:21;;;;;;;1.13;0.30;;;9.90;96.70;;;;;;4959176;28;20050;-72
2024/03/04 03:08:51;;;;;;;0.80;0.32;;;9.90;96.70;;;;;;4955851;28;20502;-72
2024/03/04 03:11:22;;;;;;;0.50;0.43;;;9.90;96.70;;;;;;4958080;28;20098;-72
2024/03/04 03:13:50;;;;;;;0.88;0.30;;;9.90;96.70;;;;;;4953075;28;20074;-72
2024/03/04 03:16:20;;;;;;;1.75;0.45;;;9.90;96.70;;;;;;4965300;28;20043;-72
2024/03/04 03:18:50;;;;;;;0.90;0.30;;;9.80;96.70;;;;;;4948932;28;20819;-72
2024/03/04 03:21:18;;;;;;;0.52;0.20;;;9.80;96.70;;;;;;4949366;28;20050;-72
2024/03/04 03:23:49;;;;;;;0.60;0.30;;;9.80;96.70;;;;;;4950182;28;20051;-72
2024/03/04 03:26:20;;;;;;;2.28;0.30;;;9.70;96.70;;;;;;4950441;28;20058;-72
2024/03/04 03:28:51;;;;;;;1.75;0.40;;;9.90;96.70;;;;;;4956688;28;20059;-72
2024/03/04 03:31:21;;;;;;;0.95;0.38;;;9.90;96.70;;;;;;4948375;28;20151;-72
2024/03/04 03:33:49;;;;;;;1.55;0.30;;;9.90;96.70;;;;;;4949513;28;20066;-72
2024/03/04 03:36:18;;;;;;;0.88;0.30;;;9.90;96.70;;;;;;4957838;28;20042;-72
2024/03/04 03:38:47;;;;;;;1.15;0.30;;;9.90;96.70;;;;;;4958158;28;20051;-72
2024/03/04 03:41:19;;;;;;;1.63;0.30;;;9.90;96.70;;;;;;4981933;28;20083;-72
2024/03/04 03:43:49;;;;;;;1.17;0.20;;;9.90;96.70;;;;;;4981607;28;20049;-72
2024/03/04 03:46:18;;;;;;;1.15;0.30;;;9.90;96.70;;;;;;4979186;28;20076;-72
2024/03/04 03:48:48;;;;;;;1.20;0.30;;;9.90;96.70;;;;;;4982276;28;20049;-72
2024/03/04 03:51:18;;;;;;;1.48;0.30;;;9.80;96.70;;;;;;4988214;28;20115;-71
2024/03/04 03:53:47;;;;;;;0.40;0.20;;;9.90;96.70;;;;;;4982455;28;20168;-72
2024/03/04 03:56:21;;;;;;;0.43;0.28;;;9.90;96.70;;;;;;4982695;28;20050;-72
2024/03/04 03:58:53;;;;;;;1.88;0.30;;;9.90;96.70;;;;;;4997812;28;20209;-72
2024/03/04 04:01:24;;;;;;;1.35;0.30;;;10.00;96.70;;;;;;4986550;28;20047;-72
2024/03/04 04:03:53;;;;;;;0.88;0.25;;;10.00;96.70;;;;;;4974138;28;20052;-72
2024/03/04 04:06:23;;;;;;;1.00;0.25;;;10.00;96.70;;;;;;4987992;28;20050;-72
2024/03/04 04:08:52;;;;;;;1.65;0.70;;;10.00;96.70;;;;;;4998187;28;20050;-72
2024/03/04 04:11:24;;;;;;;1.17;0.30;;;9.90;96.70;;;;;;5005062;28;20052;-72
2024/03/04 04:13:53;;;;;;;1.95;0.25;;;9.90;96.70;;;;;;4976436;28;20058;-71
2024/03/04 04:16:23;;;;;;;0.55;0.20;;;9.90;96.70;;;;;;4981929;28;20414;-72
2024/03/04 04:18:58;;;;;;;0.77;0.38;;;9.90;96.70;;;;;;4987912;28;20057;-71
2024/03/04 04:21:27;;;;;;;0.40;0.15;;;9.90;96.70;;;;;;4985844;28;20054;-72
2024/03/04 04:23:56;;;;;;;2.17;0.30;;;9.80;96.70;;;;;;4976813;28;20112;-72
2024/03/04 04:26:27;;;;;;;0.85;0.20;;;9.70;96.70;;;;;;4979776;28;20088;-71
2024/03/04 04:28:56;;;;;;;0.38;0.10;;;9.70;96.70;;;;;;4977413;28;20053;-71
2024/03/04 04:31:25;;;;;;;1.13;0.40;;;9.70;96.70;;;;;;4976026;28;20073;-72
2024/03/04 04:33:55;;;;;;;1.40;0.85;;;9.80;96.70;;;;;;4976875;28;20062;-71
2024/03/04 04:36:25;;;;;;;0.82;0.20;;;9.80;96.70;;;;;;4975831;28;20097;-72
2024/03/04 04:38:56;;;;;;;2.83;0.43;;;9.70;96.70;;;;;;5005748;28;20049;-72
2024/03/04 04:41:31;;;;;;;3.28;0.40;;;9.70;96.70;;;;;;4992873;28;20062;-72
2024/03/04 04:44:06;;;;;;;0.82;0.28;;;9.70;96.70;;;;;;4974006;28;20693;-72
2024/03/04 04:46:40;;;;;;;1.60;0.47;;;9.70;96.70;;;;;;4979893;28;20050;-71
2024/03/04 04:49:10;;;;;;;2.78;0.88;;;9.70;96.70;;;;;;4990653;28;20502;-72
2024/03/04 04:51:40;;;;;;;0.90;0.32;;;9.60;96.70;;;;;;4976619;28;20661;-72
2024/03/04 04:54:09;;;;;;;2.47;0.30;;;9.60;96.70;;;;;;4994501;28;20050;-71
2024/03/04 04:56:40;;;;;;;1.40;0.30;;;9.60;96.70;;;;;;4989511;28;20604;-72
2024/03/04 04:59:11;;;;;;;1.85;0.30;;;9.60;96.70;;;;;;4974876;28;20073;-72
2024/03/04 05:01:40;;;;;;;1.70;0.20;;;9.70;96.70;;;;;;4989155;28;20056;-72
2024/03/04 05:04:09;;;;;;;2.33;0.45;;;9.70;96.70;;;;;;4973269;28;20507;-72
2024/03/04 05:07:00;;;;;;;1.55;0.30;;;9.70;96.70;;;;;;4993491;28;20048;-72
2024/03/04 05:09:31;;;;;;;0.30;0.10;;;9.70;96.70;;;;;;4980311;28;20049;-72
2024/03/04 05:12:02;;;;;;;0.65;0.10;;;9.70;96.70;;;;;;4976219;28;20154;-72
2024/03/04 05:14:34;;;;;;;1.52;0.40;;;9.70;96.70;;;;;;4991297;28;20049;-72
2024/03/04 05:17:02;;;;;;;0.60;0.40;;;9.70;96.70;;;;;;4995140;28;20049;-72
2024/03/04 05:19:35;;;;;;;0.43;0.20;;;9.70;96.70;;;;;;4989333;28;20053;-72
2024/03/04 05:22:08;;;;;;;2.88;0.43;;;9.70;96.70;;;;;;4981083;28;20081;-72
2024/03/04 05:24:38;;;;;;;2.65;0.45;;;9.60;96.70;;;;;;4994958;28;20059;-71
2024/03/04 05:27:09;;;;;;;3.33;0.50;;;9.60;96.70;;;;;;4981958;28;20056;-72
2024/03/04 05:29:38;;;;;;;0.75;0.22;;;9.50;96.70;;;;;;4984180;28;20061;-72
2024/03/04 05:32:07;;;;;;;1.15;0.40;;;9.50;96.70;;;;;;4977411;28;20051;-72
2024/03/04 05:34:40;;;;;;;2.50;0.60;;;9.50;96.70;;;;;;4979546;28;20042;-72
2024/03/04 05:37:11;;;;;;;1.98;0.50;;;9.50;96.70;;;;;;5002832;28;20049;-72
2024/03/04 05:39:39;;;;;;;2.13;0.60;;;9.50;96.70;;;;;;4976964;28;20070;-72
2024/03/04 05:42:10;;;;;;;3.40;0.73;;;9.50;96.70;;;;;;4989284;28;20049;-71
2024/03/04 05:44:41;;;;;;;1.10;0.60;;;9.50;96.70;;;;;;4984736;28;20053;-71
2024/03/04 05:47:10;;;;;;;0.95;0.43;;;9.50;96.70;;;;;;4986362;28;20054;-71
2024/03/04 05:49:40;;;;;;;1.80;0.40;;;9.40;96.70;;;;;;5010346;28;20061;-72
2024/03/04 05:52:11;;;;;;;4.18;0.50;;;9.40;96.70;;;;;;4986615;28;20072;-72
2024/03/04 05:54:40;;;;;;;0.90;0.40;;;9.40;96.70;;;;;;4979158;28;20061;-71
2024/03/04 05:57:11;;;;;;;3.53;0.60;;;9.50;96.70;;;;;;4985940;28;20037;-72
2024/03/04 05:59:40;;;;;;;2.45;0.50;;;9.50;96.70;;;;;;4975657;28;20092;-72
2024/03/04 06:02:14;;;;;;;1.75;0.85;;;9.50;96.70;;;;;;5000538;28;20053;-72
2024/03/04 06:04:43;;;;;;;1.65;0.40;;;9.50;96.70;;;;;;4993817;28;20061;-71
2024/03/04 06:07:12;;;;;;;2.10;0.30;;;9.50;96.70;;;;;;4992517;28;20069;-71
2024/03/04 06:09:40;;;;;;;2.63;0.32;;;9.50;96.70;;;;;;5000469;28;20064;-71
2024/03/04 06:12:13;;;;;;;0.50;0.30;;;9.50;96.70;;;;;;5007462;28;20057;-72
2024/03/04 06:14:41;;;;;;;1.10;0.40;;;9.60;96.70;;;;;;4975542;28;20053;-71
2024/03/04 06:17:10;;;;;;;1.73;0.50;;;9.60;96.70;;;;;;4979630;28;20136;-72
2024/03/04 06:19:43;;;;;;;0.50;0.30;;;9.70;96.70;;;;;;4980075;28;20069;-72
2024/03/04 06:22:12;;;;;;;2.05;0.55;;;9.70;96.70;;;;;;4999840;28;20046;-71
2024/03/04 06:24:42;;;;;;;1.75;0.73;;;9.70;96.70;;;;;;4980233;28;20099;-71
2024/03/04 06:27:16;;;;;;;5.30;2.38;;;9.70;96.70;;;;;;4968982;28;20042;-72
2024/03/04 06:29:44;;;;;;;3.47;1.90;;;9.70;96.70;;;;;;4975550;28;20050;-71
2024/03/04 06:32:15;;;;;;;2.38;1.08;;;9.70;96.70;;;;;;4991977;28;20073;-72
2024/03/04 06:34:47;;;;;;;3.15;1.08;;;9.80;96.70;;;;;;4994598;28;20061;-72
2024/03/04 06:37:16;;;;;;;1.83;0.70;;;9.80;96.70;;;;;;4997105;28;20588;-72
2024/03/04 06:39:49;;;;;;;2.22;1.02;;;9.90;96.70;;;;;;4988576;28;20078;-72
2024/03/04 06:42:19;;;;;;;0.85;0.40;;;9.90;96.70;;;;;;4991593;28;20076;-72
2024/03/04 06:44:50;;;;;;;4.07;0.90;;;9.90;96.70;;;;;;4986111;28;20053;-72
2024/03/04 06:47:18;;;;;;;1.48;0.40;;;10.00;96.70;;;;;;4986708;28;20042;-71
2024/03/04 06:49:49;;;;;;;1.10;0.47;;;10.00;96.70;;;;;;4992162;28;20465;-71
2024/03/04 06:52:18;;;;;;;1.50;0.55;;;10.00;96.70;;;;;;4993476;28;20049;-71
2024/03/04 06:54:49;;;;;;;2.10;0.73;;;10.10;96.70;;;;;;4966582;28;20116;-72
2024/03/04 06:57:19;;;;;;;1.42;0.55;;;10.10;96.70;;;;;;4990711;28;20204;-72
2024/03/04 06:59:47;;;;;;;1.63;0.57;;;10.10;96.70;;;;;;4990259;28;20140;-71
2024/03/04 07:02:16;;;;;;;0.95;0.25;;;10.20;96.70;;;;;;4991373;28;20053;-71
2024/03/04 07:04:45;;;;;;;1.85;0.40;;;10.20;96.70;;;;;;4974753;28;20431;-71
2024/03/04 07:07:15;;;;;;;2.15;0.65;;;10.30;96.70;;;;;;4963358;28;20132;-72
2024/03/04 07:09:44;;;;;;;2.67;0.90;;;10.30;96.70;;;;;;4990911;28;20491;-72
2024/03/04 07:12:13;;;;;;;2.00;0.57;;;10.40;96.70;;;;;;4968507;28;20061;-72
2024/03/04 07:14:45;;;;;;;3.97;1.00;;;10.40;96.70;;;;;;4980612;28;20077;-72
2024/03/04 07:17:14;;;;;;;2.47;0.47;;;10.40;96.70;;;;;;4984623;28;20120;-72
2024/03/04 07:19:42;;;;;;;3.35;0.85;;;10.50;96.70;;;;;;4989560;28;20049;-72
2024/03/04 07:22:13;;;;;;;3.63;0.60;;;10.50;96.70;;;;;;4981307;28;20038;-71
2024/03/04 07:24:43;;;;;;;4.53;0.90;;;10.50;96.70;;;;;;4983045;28;20053;-71
2024/03/04 07:27:14;;;;;;;1.92;0.50;;;10.50;96.70;;;;;;4978827;28;20045;-71
2024/03/04 07:29:46;;;;;;;2.17;0.60;;;10.50;96.70;;;;;;4987729;28;20133;-72
2024/03/04 07:32:25;;;;;;;2.95;0.50;;;10.60;96.70;;;;;;4978532;28;20050;-72
2024/03/04 07:34:54;;;;;;;3.08;1.20;;;10.60;96.70;;;;;;4973758;28;21214;-71
2024/03/04 07:37:23;;;;;;;2.08;0.70;;;10.70;96.70;;;;;;4973428;28;20080;-71
2024/03/04 07:39:52;;;;;;;1.55;0.52;;;10.70;96.70;;;;;;4985445;28;20542;-71
2024/03/04 07:42:23;;;;;;;3.25;0.73;;;10.80;96.70;;;;;;4975032;28;20324;-71
2024/03/04 07:44:54;;;;;;;1.75;0.75;;;10.90;96.70;;;;;;4979308;28;20050;-72
2024/03/04 07:47:24;;;;;;;0.90;0.60;;;10.90;96.70;;;;;;4980640;28;20061;-72
2024/03/04 07:49:52;;;;;;;3.30;0.50;;;11.00;96.70;;;;;;4992184;28;20511;-71
2024/03/04 07:52:22;;;;;;;2.70;0.80;;;11.00;96.70;;;;;;4983015;28;20053;-71
2024/03/04 07:54:52;;;;;;;1.98;0.75;;;11.10;96.70;;;;;;4974216;28;20097;-71
2024/03/04 07:57:21;;;;;;;3.72;0.77;;;11.20;96.70;;;;;;4989418;28;20050;-71
2024/03/04 07:59:54;;;;;;;5.45;1.55;;;11.20;96.70;;;;;;4974408;28;20061;-72
2024/03/04 08:02:24;;;;;;;5.63;1.80;;;11.30;96.70;;;;;;4967481;28;20516;-72
2024/03/04 08:04:53;;;;;;;5.35;1.00;;;11.20;96.70;;;;;;4990182;28;20084;-72
2024/03/04 08:07:22;;;;;;;3.63;0.70;;;11.30;96.70;;;;;;4994882;28;20050;-72
2024/03/04 08:09:50;;;;;;;2.80;0.90;;;11.30;96.70;;;;;;4974938;28;20678;-71
2024/03/04 08:12:20;;;;;;;1.58;0.90;;;11.40;96.70;;;;;;4992518;28;20462;-72
2024/03/04 08:14:50;;;;;;;3.35;1.05;;;11.40;96.70;;;;;;4975781;28;20594;-71
2024/03/04 08:17:20;;;;;;;2.97;1.20;;;11.50;96.70;;;;;;4980206;28;20056;-71
2024/03/04 08:19:56;;;;;;;4.68;2.20;;;11.60;96.70;;;;;;4978033;28;20054;-71
2024/03/04 08:22:26;;;;;;;6.10;2.40;;;11.60;96.70;;;;;;4966173;28;20054;-72
2024/03/04 08:24:56;;;;;;;4.85;1.65;;;11.70;96.70;;;;;;4976623;28;20046;-72
2024/03/04 08:27:24;;;;;;;6.22;1.77;;;11.70;96.70;;;;;;4986038;28;20393;-72
2024/03/04 08:29:56;;;;;;;4.63;2.28;;;11.80;96.70;;;;;;4971095;28;20046;-71
2024/03/04 08:32:30;;;;;;;6.10;1.80;;;11.90;96.70;;;;;;4973000;28;20054;-72
2024/03/04 08:34:59;;;;;;;5.30;2.10;;;12.00;96.70;;;;;;4986256;28;20062;-72
2024/03/04 08:37:28;;;;;;;4.13;2.38;;;12.10;96.70;;;;;;4974448;28;20475;-71
2024/03/04 08:39:59;;;;;;;5.00;3.13;;;12.10;96.70;;;;;;4976579;28;20058;-72
2024/03/04 08:42:28;;;;;;;6.25;2.85;;;12.20;96.70;;;;;;4949527;28;20657;-72
2024/03/04 08:44:58;;;;;;;7.80;2.90;;;12.30;96.70;;;;;;4978071;28;20050;-71
2024/03/04 08:47:30;;;;;;;8.07;2.75;;;12.30;96.70;;;;;;4952781;28;20074;-72
2024/03/04 08:50:00;;;;;;;6.50;2.25;;;12.20;96.70;;;;;;4971076;28;20420;-71
2024/03/04 08:52:30;;;;;;;6.65;1.88;;;12.30;96.70;;;;;;4953809;28;20047;-71
2024/03/04 08:55:00;;;;;;;6.15;2.42;;;12.40;96.70;;;;;;4985700;28;20055;-72
2024/03/04 08:57:28;;;;;;;6.72;1.60;;;12.40;96.70;;;;;;4969207;28;20047;-72
2024/03/04 08:59:57;;;;;;;3.60;1.60;;;12.60;96.70;;;;;;4972420;28;20141;-72
2024/03/04 09:02:27;;;;;;;4.20;1.63;;;12.70;96.70;;;;;;4960202;28;20107;-72
2024/03/04 09:04:58;;;;;;;6.88;2.00;;;12.80;96.70;;;;;;4982521;28;20046;-72
2024/03/04 09:07:27;;;;;;;3.22;1.50;;;12.90;96.70;;;;;;4989310;28;20053;-72
2024/03/04 09:10:00;;;;;;;2.38;1.05;;;13.00;96.70;;;;;;4988024;28;20038;-72
2024/03/04 09:12:30;;;;;;;2.22;0.95;;;13.00;96.70;;;;;;4960909;28;20775;-72
2024/03/04 09:15:00;;;;;;;5.45;1.63;;;13.10;96.70;;;;;;4957015;28;20415;-72
2024/03/04 09:17:30;;;;;;;5.18;1.50;;;13.20;96.70;;;;;;4961838;28;20049;-72
2024/03/04 09:19:58;;;;;;;5.45;1.58;;;13.30;96.70;;;;;;4977683;28;20042;-72
2024/03/04 09:22:30;;;;;;;2.65;0.85;;;13.30;96.70;;;;;;4969096;28;20046;-72
2024/03/04 09:24:59;;;;;;;2.78;0.80;;;13.40;96.70;;;;;;4960659;28;20527;-72
2024/03/04 09:27:31;;;;;;;3.75;1.15;;;13.40;96.70;;;;;;4959685;28;20137;-72
2024/03/04 09:30:00;;;;;;;3.20;0.80;;;13.50;96.70;;;;;;4978484;28;20673;-71
2024/03/04 09:32:30;;;;;;;3.47;0.80;;;13.60;96.70;;;;;;4960470;28;20047;-72
2024/03/04 09:34:59;;;;;;;3.25;1.00;;;13.60;96.70;;;;;;4957865;28;20051;-72
2024/03/04 09:37:28;;;;;;;1.90;0.43;;;13.60;96.70;;;;;;4962076;28;20094;-71
2024/03/04 09:39:58;;;;;;;3.40;0.70;;;13.50;96.70;;;;;;4960591;28;20524;-72
2024/03/04 09:42:32;;;;;;;4.85;0.75;;;13.50;96.70;;;;;;4982046;28;20134;-72
2024/03/04 09:45:03;;;;;;;2.80;0.50;;;13.60;96.70;;;;;;4973585;28;20070;-72
2024/03/04 09:47:36;;;;;;;4.03;0.50;;;13.50;96.70;;;;;;4989262;28;20565;-72
2024/03/04 09:50:07;;;;;;;3.08;0.68;;;13.60;96.70;;;;;;4985896;28;20456;-72
2024/03/04 09:52:38;;;;;;;5.18;1.20;;;13.60;96.70;;;;;;5001853;28;20062;-72
2024/03/04 09:55:10;;;;;;;5.22;1.27;;;13.60;96.70;;;;;;4977194;28;20050;-72
2024/03/04 09:57:39;;;;;;;3.17;0.70;;;13.70;96.70;;;;;;4971574;28;20125;-73
2024/03/04 10:00:16;;;;;;;6.18;0.85;;;13.80;96.70;;;;;;5000992;28;20052;-72
2024/03/04 10:02:47;;;;;;;8.43;1.50;;;13.80;96.70;;;;;;4973884;28;20411;-72
2024/03/04 10:05:16;;;;;;;8.48;1.35;;;13.80;96.70;;;;;;4978573;28;20507;-72
2024/03/04 10:07:46;;;;;;;5.03;0.80;;;13.70;96.70;;;;;;5006851;28;20048;-72
2024/03/04 10:10:16;;;;;;;10.80;1.65;;;13.70;96.70;;;;;;4999198;28;20046;-72
2024/03/04 10:12:48;;;;;;;6.43;1.73;;;13.80;96.70;;;;;;4981841;28;20046;-72
2024/03/04 10:15:22;;;;;;;6.10;1.20;;;13.80;96.70;;;;;;4993932;28;20065;-72
2024/03/04 10:17:54;;;;;;;5.85;0.80;;;13.80;96.70;;;;;;4997807;28;20053;-72
2024/03/04 10:20:24;;;;;;;9.02;1.42;;;13.80;96.70;;;;;;4981700;28;20108;-72
2024/03/04 10:22:56;;;;;;;4.78;0.70;;;13.80;96.70;;;;;;4981023;28;20530;-72
2024/03/04 10:25:25;;;;;;;4.82;1.15;;;13.80;96.70;;;;;;4983794;28;20054;-72
2024/03/04 10:27:55;;;;;;;6.13;2.20;;;13.80;96.70;;;;;;4999006;28;20062;-72
2024/03/04 10:30:28;;;;;;;7.13;1.40;;;13.90;96.70;;;;;;4997391;28;20101;-72
2024/03/04 10:33:00;;;;;;;7.10;1.38;;;14.00;96.70;;;;;;4964297;28;20061;-72
2024/03/04 10:35:30;;;;;;;3.83;0.90;;;14.20;96.70;;;;;;4977880;28;20053;-72
2024/03/04 10:38:05;;;;;;;5.45;1.08;;;14.40;96.70;;;;;;4997470;28;20050;-72
2024/03/04 10:40:35;;;;;;;5.10;0.90;;;14.40;96.70;;;;;;4980570;28;20431;-72
2024/03/04 10:43:06;;;;;;;1.85;0.73;;;14.50;96.70;;;;;;4987545;28;20058;-72
2024/03/04 10:45:37;;;;;;;2.45;0.93;;;14.60;96.70;;;;;;4976653;28;20061;-72
2024/03/04 10:48:09;;;;;;;3.63;1.10;;;14.70;96.70;;;;;;4979249;28;20050;-72
2024/03/04 10:50:39;;;;;;;3.83;0.68;;;14.80;96.70;;;;;;4990291;28;20077;-71
2024/03/04 10:53:10;;;;;;;3.15;0.82;;;14.80;96.70;;;;;;4981798;28;20057;-72
2024/03/04 10:55:40;;;;;;;3.53;0.77;;;14.80;96.70;;;;;;4986202;28;20077;-72
2024/03/04 10:58:11;;;;;;;2.58;0.73;;;14.90;96.70;;;;;;4988262;28;20053;-72
2024/03/04 11:00:40;;;;;;;8.00;1.38;;;15.10;96.70;;;;;;4987633;28;20053;-72
2024/03/04 11:03:16;;;;;;;4.47;0.82;;;15.30;96.70;;;;;;4973454;28;20531;-72
2024/03/04 11:05:48;;;;;;;4.25;0.80;;;15.40;96.70;;;;;;4974475;28;20054;-72
2024/03/04 11:08:27;;;;;;;4.40;1.05;;;15.40;96.70;;;;;;4990607;28;20602;-72
2024/03/04 11:11:06;;;;;;;3.63;0.82;;;15.50;96.70;;;;;;4972437;28;20100;-72
2024/03/04 11:13:47;;;;;;;5.47;0.77;;;15.60;96.70;;;;;;4980606;28;20058;-72
2024/03/04 11:16:22;;;;;;;4.35;1.00;;;15.70;96.70;;;;;;4984908;28;20178;-72
2024/03/04 11:19:03;;;;;;;4.35;1.20;;;15.70;96.70;;;;;;4996987;28;20590;-72
2024/03/04 11:21:33;;;;;;;5.00;1.33;;;15.50;96.70;;;;;;4980280;28;20092;-72
2024/03/04 11:24:06;;;;;;;4.05;1.27;;;15.50;96.70;;;;;;4980124;28;20128;-72
2024/03/04 11:26:37;;;;;;;6.32;1.70;;;15.70;96.70;;;;;;4976248;28;20587;-72
2024/03/04 11:29:09;;;;;;;4.35;1.55;;;15.70;96.70;;;;;;4983820;28;20740;-72
2024/03/04 11:31:40;;;;;;;4.32;1.42;;;15.70;96.70;;;;;;4995894;28;20076;-72
2024/03/04 11:34:12;;;;;;;5.00;1.20;;;15.80;96.70;;;;;;4979752;28;20553;-72
2024/03/04 11:36:41;;;;;;;3.22;1.30;;;15.80;96.70;;;;;;4973347;28;20500;-72
2024/03/04 11:39:15;;;;;;;4.47;1.80;;;15.90;96.70;;;;;;4986088;28;20082;-72
2024/03/04 11:41:45;;;;;;;8.52;2.47;;;16.10;96.70;;;;;;4987772;28;20081;-72
2024/03/04 11:44:18;;;;;;;4.60;1.85;;;16.10;96.70;;;;;;4976816;28;20636;-72
2024/03/04 11:46:49;;;;;;;6.07;1.70;;;15.90;96.70;;;;;;4999853;28;20080;-73
2024/03/04 11:49:26;;;;;;;6.32;1.85;;;15.80;96.70;;;;;;4986620;28;20050;-72
2024/03/04 11:52:05;;;;;;;4.95;1.83;;;15.70;96.70;;;;;;5003971;28;20091;-72
2024/03/04 11:54:45;;;;;;;6.80;1.52;;;15.60;96.70;;;;;;4976246;28;20062;-72
2024/03/04 11:57:14;;;;;;;6.32;1.45;;;15.60;96.70;;;;;;4991424;28;20062;-72
2024/03/04 11:59:57;;;;;;;5.15;1.83;;;15.70;96.70;;;;;;4967372;28;20069;-72
2024/03/04 12:02:27;;;;;;;6.35;1.60;;;15.80;96.70;;;;;;4976860;28;20067;-72
2024/03/04 12:05:00;;;;;;;5.38;1.33;;;15.80;96.70;;;;;;4972526;28;20082;-73
2024/03/04 12:07:30;;;;;;;3.13;1.40;;;15.70;96.70;;;;;;4975202;28;20060;-72
2024/03/04 12:10:00;;;;;;;4.28;1.17;;;15.60;96.70;;;;;;4973452;28;20173;-72
2024/03/04 12:12:43;;;;;;;4.75;1.73;;;15.50;96.70;;;;;;4967383;28;20068;-72
2024/03/04 12:15:12;;;;;;;4.78;1.60;;;15.30;96.70;;;;;;4974919;28;20061;-72
2024/03/04 12:17:40;;;;;;;4.85;1.25;;;15.20;96.70;;;;;;4975974;28;20051;-72
2024/03/04 12:20:13;;;;;;;5.60;1.83;;;15.20;96.70;;;;;;4984694;28;20420;-72
2024/03/04 12:22:42;;;;;;;5.22;1.52;;;15.10;96.70;;;;;;4978411;28;20046;-72
2024/03/04 12:25:12;;;;;;;5.05;1.58;;;15.00;96.70;;;;;;4986758;28;20064;-72
2024/03/04 12:27:41;;;;;;;4.15;1.45;;;15.00;96.70;;;;;;4970559;28;20047;-71
2024/03/04 12:30:12;;;;;;;3.55;1.23;;;15.00;96.70;;;;;;4985797;28;20077;-72
2024/03/04 12:32:42;;;;;;;4.50;1.48;;;14.90;96.70;;;;;;4988109;28;20057;-71
2024/03/04 12:35:30;;;;;;;4.82;1.10;;;14.80;96.70;;;;;;4976433;28;20145;-73
2024/03/04 12:38:02;;;;;;;3.72;1.00;;;14.70;96.70;;;;;;4978439;28;20105;-72
2024/03/04 12:40:31;;;;;;;6.57;2.38;;;14.70;96.70;;;;;;4980416;28;20058;-72
2024/03/04 12:43:03;;;;;;;4.40;1.30;;;14.70;96.70;;;;;;4976960;28;20054;-72
2024/03/04 12:45:34;;;;;;;4.88;1.15;;;14.70;96.70;;;;;;4970140;28;21015;-72
2024/03/04 12:48:05;;;;;;;6.43;1.15;;;14.70;96.70;;;;;;4976759;28;20305;-72
2024/03/04 12:50:41;;;;;;;2.95;1.30;;;14.60;96.70;;;;;;4971020;28;20054;-72
2024/03/04 12:53:10;;;;;;;7.30;1.10;;;14.50;96.70;;;;;;4987102;28;20058;-72
2024/03/04 12:55:41;;;;;;;3.75;1.30;;;14.40;96.70;;;;;;4980885;28;20139;-71
2024/03/04 12:58:10;;;;;;;5.40;1.02;;;14.30;96.70;;;;;;4975344;28;20050;-72
2024/03/04 13:00:41;;;;;;;4.07;1.05;;;14.30;96.70;;;;;;4986004;28;20050;-72
2024/03/04 13:03:11;;;;;;;3.80;1.05;;;14.20;96.70;;;;;;4978273;28;20053;-72
2024/03/04 13:05:43;;;;;;;5.18;1.50;;;14.20;96.70;;;;;;4988973;28;20054;-72
2024/03/04 13:08:14;;;;;;;7.20;1.90;;;14.10;96.70;;;;;;4981955;28;20058;-72